sensor_id;sensor_type;location;lat;lon;timestamp;P1;durP1;ratioP1;P2;durP2;ratioP2
72813;SDS011;60945;48.516;-2.768;2022-10-31T00:00:18;9.45;;;2.80;;
72813;SDS011;60945;48.516;-2.768;2022-10-31T00:02:44;11.48;;;2.80;;
72813;SDS011;60945;48.516;-2.768;2022-10-31T00:05:09;12.57;;;2.83;;
72813;SDS011;60945;48.516;-2.768;2022-10-31T00:07:35;8.63;;;2.38;;
72813;SDS011;60945;48.516;-2.768;2022-10-31T00:10:01;10.95;;;3.05;;
72813;SDS011;60945;48.516;-2.768;2022-10-31T00:12:26;12.00;;;2.83;;
72813;SDS011;60945;48.516;-2.768;2022-10-31T00:14:52;14.80;;;3.17;;
72813;SDS011;60945;48.516;-2.768;2022-10-31T00:17:18;7.93;;;3.03;;
72813;SDS011;60945;48.516;-2.768;2022-10-31T00:19:43;12.23;;;3.03;;
72813;SDS011;60945;48.516;-2.768;2022-10-31T00:22:09;13.70;;;2.38;;
72813;SDS011;60945;48.516;-2.768;2022-10-31T00:24:35;10.57;;;2.42;;
72813;SDS011;60945;48.516;-2.768;2022-10-31T00:27:00;11.90;;;2.50;;
72813;SDS011;60945;48.516;-2.768;2022-10-31T00:29:26;10.82;;;2.53;;
72813;SDS011;60945;48.516;-2.768;2022-10-31T00:31:52;8.73;;;1.90;;
72813;SDS011;60945;48.516;-2.768;2022-10-31T00:34:18;11.27;;;2.47;;
72813;SDS011;60945;48.516;-2.768;2022-10-31T00:36:43;13.35;;;2.30;;
72813;SDS011;60945;48.516;-2.768;2022-10-31T00:39:09;12.73;;;2.70;;
72813;SDS011;60945;48.516;-2.768;2022-10-31T00:41:35;15.23;;;2.97;;
72813;SDS011;60945;48.516;-2.768;2022-10-31T00:44:00;9.90;;;2.60;;
72813;SDS011;60945;48.516;-2.768;2022-10-31T00:46:26;10.27;;;2.50;;
72813;SDS011;60945;48.516;-2.768;2022-10-31T00:48:52;11.32;;;2.95;;
72813;SDS011;60945;48.516;-2.768;2022-10-31T00:51:17;12.35;;;3.50;;
72813;SDS011;60945;48.516;-2.768;2022-10-31T00:53:43;12.25;;;2.63;;
72813;SDS011;60945;48.516;-2.768;2022-10-31T00:56:08;10.40;;;2.75;;
72813;SDS011;60945;48.516;-2.768;2022-10-31T00:58:34;8.55;;;2.40;;
72813;SDS011;60945;48.516;-2.768;2022-10-31T01:01:00;10.68;;;3.00;;
72813;SDS011;60945;48.516;-2.768;2022-10-31T01:03:26;10.85;;;2.83;;
72813;SDS011;60945;48.516;-2.768;2022-10-31T01:05:58;11.75;;;2.92;;
72813;SDS011;60945;48.516;-2.768;2022-10-31T01:08:26;15.85;;;4.05;;
72813;SDS011;60945;48.516;-2.768;2022-10-31T01:11:07;12.00;;;3.42;;
72813;SDS011;60945;48.516;-2.768;2022-10-31T01:13:33;10.70;;;3.05;;
72813;SDS011;60945;48.516;-2.768;2022-10-31T01:15:59;10.20;;;2.38;;
72813;SDS011;60945;48.516;-2.768;2022-10-31T01:18:26;13.90;;;3.85;;
72813;SDS011;60945;48.516;-2.768;2022-10-31T01:21:07;12.05;;;2.80;;
72813;SDS011;60945;48.516;-2.768;2022-10-31T01:23:53;14.93;;;3.28;;
72813;SDS011;60945;48.516;-2.768;2022-10-31T01:26:21;9.65;;;2.65;;
72813;SDS011;60945;48.516;-2.768;2022-10-31T01:28:56;14.52;;;2.92;;
72813;SDS011;60945;48.516;-2.768;2022-10-31T01:31:24;10.32;;;2.78;;
72813;SDS011;60945;48.516;-2.768;2022-10-31T01:33:51;13.40;;;3.42;;
72813;SDS011;60945;48.516;-2.768;2022-10-31T01:36:27;8.43;;;2.42;;
72813;SDS011;60945;48.516;-2.768;2022-10-31T01:38:55;14.27;;;3.00;;
72813;SDS011;60945;48.516;-2.768;2022-10-31T01:41:23;15.02;;;2.92;;
72813;SDS011;60945;48.516;-2.768;2022-10-31T01:44:01;11.50;;;2.78;;
72813;SDS011;60945;48.516;-2.768;2022-10-31T01:46:52;9.35;;;2.70;;
72813;SDS011;60945;48.516;-2.768;2022-10-31T01:49:23;10.70;;;2.78;;
72813;SDS011;60945;48.516;-2.768;2022-10-31T01:51:56;10.38;;;2.95;;
72813;SDS011;60945;48.516;-2.768;2022-10-31T01:54:23;7.10;;;2.38;;
72813;SDS011;60945;48.516;-2.768;2022-10-31T01:57:01;7.70;;;2.72;;
72813;SDS011;60945;48.516;-2.768;2022-10-31T01:59:30;11.35;;;2.55;;
72813;SDS011;60945;48.516;-2.768;2022-10-31T02:01:58;13.60;;;2.88;;
72813;SDS011;60945;48.516;-2.768;2022-10-31T02:04:23;10.38;;;3.55;;
72813;SDS011;60945;48.516;-2.768;2022-10-31T02:06:54;13.13;;;3.10;;
72813;SDS011;60945;48.516;-2.768;2022-10-31T02:09:24;7.97;;;2.20;;
72813;SDS011;60945;48.516;-2.768;2022-10-31T02:11:51;9.32;;;2.47;;
72813;SDS011;60945;48.516;-2.768;2022-10-31T02:14:18;18.58;;;2.88;;
72813;SDS011;60945;48.516;-2.768;2022-10-31T02:16:46;11.98;;;2.00;;
72813;SDS011;60945;48.516;-2.768;2022-10-31T02:19:12;10.15;;;2.50;;
72813;SDS011;60945;48.516;-2.768;2022-10-31T02:21:50;9.32;;;2.83;;
72813;SDS011;60945;48.516;-2.768;2022-10-31T02:30:20;14.63;;;2.70;;
72813;SDS011;60945;48.516;-2.768;2022-10-31T02:36:07;6.65;;;2.50;;
72813;SDS011;60945;48.516;-2.768;2022-10-31T02:41:26;15.20;;;2.63;;
72813;SDS011;60945;48.516;-2.768;2022-10-31T02:44:09;9.77;;;2.75;;
72813;SDS011;60945;48.516;-2.768;2022-10-31T02:49:47;10.30;;;2.42;;
72813;SDS011;60945;48.516;-2.768;2022-10-31T02:52:23;6.80;;;2.38;;
72813;SDS011;60945;48.516;-2.768;2022-10-31T02:54:51;7.40;;;2.45;;
72813;SDS011;60945;48.516;-2.768;2022-10-31T02:57:20;10.07;;;2.75;;
72813;SDS011;60945;48.516;-2.768;2022-10-31T03:00:04;11.93;;;2.65;;
72813;SDS011;60945;48.516;-2.768;2022-10-31T03:07:47;15.40;;;3.15;;
72813;SDS011;60945;48.516;-2.768;2022-10-31T03:13:20;15.88;;;3.53;;
72813;SDS011;60945;48.516;-2.768;2022-10-31T03:15:50;8.15;;;3.63;;
72813;SDS011;60945;48.516;-2.768;2022-10-31T03:18:23;9.82;;;2.90;;
72813;SDS011;60945;48.516;-2.768;2022-10-31T03:21:16;12.25;;;2.70;;
72813;SDS011;60945;48.516;-2.768;2022-10-31T03:23:43;12.77;;;2.78;;
72813;SDS011;60945;48.516;-2.768;2022-10-31T03:26:11;9.13;;;3.25;;
72813;SDS011;60945;48.516;-2.768;2022-10-31T03:29:00;10.20;;;2.40;;
72813;SDS011;60945;48.516;-2.768;2022-10-31T03:31:28;9.23;;;2.53;;
72813;SDS011;60945;48.516;-2.768;2022-10-31T03:33:58;9.00;;;2.63;;
72813;SDS011;60945;48.516;-2.768;2022-10-31T03:36:25;5.70;;;2.40;;
72813;SDS011;60945;48.516;-2.768;2022-10-31T03:38:53;11.40;;;3.17;;
72813;SDS011;60945;48.516;-2.768;2022-10-31T03:41:21;10.75;;;2.90;;
72813;SDS011;60945;48.516;-2.768;2022-10-31T03:43:54;12.60;;;2.85;;
72813;SDS011;60945;48.516;-2.768;2022-10-31T03:46:24;5.18;;;2.15;;
72813;SDS011;60945;48.516;-2.768;2022-10-31T03:48:50;6.75;;;2.38;;
72813;SDS011;60945;48.516;-2.768;2022-10-31T03:57:13;11.77;;;2.63;;
72813;SDS011;60945;48.516;-2.768;2022-10-31T04:02:33;9.10;;;3.03;;
72813;SDS011;60945;48.516;-2.768;2022-10-31T04:05:03;5.75;;;2.55;;
72813;SDS011;60945;48.516;-2.768;2022-10-31T04:07:31;6.70;;;2.30;;
72813;SDS011;60945;48.516;-2.768;2022-10-31T04:10:02;5.03;;;2.72;;
72813;SDS011;60945;48.516;-2.768;2022-10-31T04:12:31;5.55;;;1.92;;
72813;SDS011;60945;48.516;-2.768;2022-10-31T04:14:59;5.95;;;2.20;;
72813;SDS011;60945;48.516;-2.768;2022-10-31T04:17:29;8.63;;;1.92;;
72813;SDS011;60945;48.516;-2.768;2022-10-31T04:19:58;4.80;;;2.30;;
72813;SDS011;60945;48.516;-2.768;2022-10-31T04:22:25;5.78;;;2.63;;
72813;SDS011;60945;48.516;-2.768;2022-10-31T04:24:51;4.35;;;1.90;;
72813;SDS011;60945;48.516;-2.768;2022-10-31T04:27:16;5.70;;;2.17;;
72813;SDS011;60945;48.516;-2.768;2022-10-31T04:29:42;6.53;;;2.00;;
72813;SDS011;60945;48.516;-2.768;2022-10-31T04:32:08;4.28;;;2.22;;
72813;SDS011;60945;48.516;-2.768;2022-10-31T04:34:33;8.27;;;2.20;;
72813;SDS011;60945;48.516;-2.768;2022-10-31T04:36:59;6.05;;;2.20;;
72813;SDS011;60945;48.516;-2.768;2022-10-31T04:39:24;7.47;;;2.55;;
72813;SDS011;60945;48.516;-2.768;2022-10-31T04:41:50;5.47;;;2.50;;
72813;SDS011;60945;48.516;-2.768;2022-10-31T04:44:16;6.78;;;2.67;;
72813;SDS011;60945;48.516;-2.768;2022-10-31T04:46:41;5.68;;;2.60;;
72813;SDS011;60945;48.516;-2.768;2022-10-31T04:49:07;10.43;;;3.20;;
72813;SDS011;60945;48.516;-2.768;2022-10-31T04:51:32;4.95;;;2.60;;
72813;SDS011;60945;48.516;-2.768;2022-10-31T04:53:58;6.90;;;2.95;;
72813;SDS011;60945;48.516;-2.768;2022-10-31T04:56:24;6.88;;;3.10;;
72813;SDS011;60945;48.516;-2.768;2022-10-31T04:58:49;6.10;;;2.38;;
72813;SDS011;60945;48.516;-2.768;2022-10-31T05:01:15;5.38;;;2.67;;
72813;SDS011;60945;48.516;-2.768;2022-10-31T05:03:40;7.25;;;2.70;;
72813;SDS011;60945;48.516;-2.768;2022-10-31T05:06:06;6.88;;;2.67;;
72813;SDS011;60945;48.516;-2.768;2022-10-31T05:08:32;7.18;;;2.20;;
72813;SDS011;60945;48.516;-2.768;2022-10-31T05:11:01;7.93;;;2.55;;
72813;SDS011;60945;48.516;-2.768;2022-10-31T05:13:28;9.43;;;3.22;;
72813;SDS011;60945;48.516;-2.768;2022-10-31T05:15:54;7.43;;;2.58;;
72813;SDS011;60945;48.516;-2.768;2022-10-31T05:18:20;8.55;;;2.53;;
72813;SDS011;60945;48.516;-2.768;2022-10-31T05:20:46;7.63;;;3.33;;
72813;SDS011;60945;48.516;-2.768;2022-10-31T05:23:12;7.28;;;2.47;;
72813;SDS011;60945;48.516;-2.768;2022-10-31T05:25:39;5.53;;;2.85;;
72813;SDS011;60945;48.516;-2.768;2022-10-31T05:28:05;6.97;;;2.60;;
72813;SDS011;60945;48.516;-2.768;2022-10-31T05:30:31;9.90;;;2.88;;
72813;SDS011;60945;48.516;-2.768;2022-10-31T05:32:58;8.27;;;2.55;;
72813;SDS011;60945;48.516;-2.768;2022-10-31T05:35:28;9.93;;;2.85;;
72813;SDS011;60945;48.516;-2.768;2022-10-31T05:37:55;8.70;;;3.38;;
72813;SDS011;60945;48.516;-2.768;2022-10-31T05:40:22;7.22;;;2.40;;
72813;SDS011;60945;48.516;-2.768;2022-10-31T05:42:52;6.60;;;2.47;;
72813;SDS011;60945;48.516;-2.768;2022-10-31T05:45:18;6.50;;;2.42;;
72813;SDS011;60945;48.516;-2.768;2022-10-31T05:47:51;9.25;;;2.50;;
72813;SDS011;60945;48.516;-2.768;2022-10-31T05:50:17;9.90;;;2.75;;
72813;SDS011;60945;48.516;-2.768;2022-10-31T05:52:43;7.05;;;2.17;;
72813;SDS011;60945;48.516;-2.768;2022-10-31T05:55:09;7.53;;;2.47;;
72813;SDS011;60945;48.516;-2.768;2022-10-31T05:57:35;7.30;;;2.08;;
72813;SDS011;60945;48.516;-2.768;2022-10-31T06:00:00;4.93;;;2.08;;
72813;SDS011;60945;48.516;-2.768;2022-10-31T06:02:26;7.55;;;3.22;;
72813;SDS011;60945;48.516;-2.768;2022-10-31T06:04:52;5.90;;;2.58;;
72813;SDS011;60945;48.516;-2.768;2022-10-31T06:07:17;4.45;;;2.17;;
72813;SDS011;60945;48.516;-2.768;2022-10-31T06:09:43;6.93;;;2.47;;
72813;SDS011;60945;48.516;-2.768;2022-10-31T06:12:09;7.10;;;2.38;;
72813;SDS011;60945;48.516;-2.768;2022-10-31T06:14:34;7.28;;;2.47;;
72813;SDS011;60945;48.516;-2.768;2022-10-31T06:17:00;6.32;;;2.53;;
72813;SDS011;60945;48.516;-2.768;2022-10-31T06:19:26;6.00;;;2.92;;
72813;SDS011;60945;48.516;-2.768;2022-10-31T06:21:51;5.03;;;2.20;;
72813;SDS011;60945;48.516;-2.768;2022-10-31T06:24:17;6.40;;;2.20;;
72813;SDS011;60945;48.516;-2.768;2022-10-31T06:26:42;6.35;;;2.20;;
72813;SDS011;60945;48.516;-2.768;2022-10-31T06:29:08;6.38;;;2.35;;
72813;SDS011;60945;48.516;-2.768;2022-10-31T06:31:33;5.50;;;2.30;;
72813;SDS011;60945;48.516;-2.768;2022-10-31T06:33:59;5.18;;;2.15;;
72813;SDS011;60945;48.516;-2.768;2022-10-31T06:36:25;6.75;;;2.22;;
72813;SDS011;60945;48.516;-2.768;2022-10-31T06:38:50;6.82;;;2.83;;
72813;SDS011;60945;48.516;-2.768;2022-10-31T06:41:16;6.22;;;2.30;;
72813;SDS011;60945;48.516;-2.768;2022-10-31T06:43:41;6.88;;;2.50;;
72813;SDS011;60945;48.516;-2.768;2022-10-31T06:46:07;6.57;;;2.70;;
72813;SDS011;60945;48.516;-2.768;2022-10-31T06:48:33;8.13;;;2.85;;
72813;SDS011;60945;48.516;-2.768;2022-10-31T06:50:59;9.13;;;3.28;;
72813;SDS011;60945;48.516;-2.768;2022-10-31T06:53:26;5.55;;;3.00;;
72813;SDS011;60945;48.516;-2.768;2022-10-31T06:55:52;6.28;;;3.13;;
72813;SDS011;60945;48.516;-2.768;2022-10-31T06:58:17;5.40;;;3.28;;
72813;SDS011;60945;48.516;-2.768;2022-10-31T07:00:43;8.80;;;3.97;;
72813;SDS011;60945;48.516;-2.768;2022-10-31T07:03:10;7.38;;;3.72;;
72813;SDS011;60945;48.516;-2.768;2022-10-31T07:05:36;7.15;;;3.78;;
72813;SDS011;60945;48.516;-2.768;2022-10-31T07:08:04;8.98;;;4.32;;
72813;SDS011;60945;48.516;-2.768;2022-10-31T07:10:32;7.70;;;4.03;;
72813;SDS011;60945;48.516;-2.768;2022-10-31T07:13:00;7.68;;;3.95;;
72813;SDS011;60945;48.516;-2.768;2022-10-31T07:15:27;9.18;;;4.80;;
72813;SDS011;60945;48.516;-2.768;2022-10-31T07:17:58;7.50;;;4.82;;
72813;SDS011;60945;48.516;-2.768;2022-10-31T07:20:26;9.50;;;4.82;;
72813;SDS011;60945;48.516;-2.768;2022-10-31T07:22:52;8.00;;;5.00;;
72813;SDS011;60945;48.516;-2.768;2022-10-31T07:25:17;9.70;;;5.18;;
72813;SDS011;60945;48.516;-2.768;2022-10-31T07:27:43;10.40;;;4.40;;
72813;SDS011;60945;48.516;-2.768;2022-10-31T07:30:09;13.50;;;6.22;;
72813;SDS011;60945;48.516;-2.768;2022-10-31T07:32:57;10.68;;;5.05;;
72813;SDS011;60945;48.516;-2.768;2022-10-31T07:35:23;10.63;;;4.80;;
72813;SDS011;60945;48.516;-2.768;2022-10-31T07:37:50;12.25;;;5.65;;
72813;SDS011;60945;48.516;-2.768;2022-10-31T07:40:16;20.52;;;7.47;;
72813;SDS011;60945;48.516;-2.768;2022-10-31T07:42:43;15.18;;;5.75;;
72813;SDS011;60945;48.516;-2.768;2022-10-31T07:45:11;12.80;;;6.88;;
72813;SDS011;60945;48.516;-2.768;2022-10-31T07:47:38;11.73;;;6.63;;
72813;SDS011;60945;48.516;-2.768;2022-10-31T07:50:05;14.68;;;7.57;;
72813;SDS011;60945;48.516;-2.768;2022-10-31T07:52:31;16.08;;;7.40;;
72813;SDS011;60945;48.516;-2.768;2022-10-31T07:54:56;13.25;;;5.97;;
72813;SDS011;60945;48.516;-2.768;2022-10-31T07:57:22;13.30;;;6.03;;
72813;SDS011;60945;48.516;-2.768;2022-10-31T07:59:48;16.73;;;6.88;;
72813;SDS011;60945;48.516;-2.768;2022-10-31T08:02:13;11.13;;;4.45;;
72813;SDS011;60945;48.516;-2.768;2022-10-31T08:04:39;8.93;;;4.78;;
72813;SDS011;60945;48.516;-2.768;2022-10-31T08:07:04;8.60;;;4.15;;
72813;SDS011;60945;48.516;-2.768;2022-10-31T08:09:30;6.80;;;3.53;;
72813;SDS011;60945;48.516;-2.768;2022-10-31T08:11:56;9.48;;;4.07;;
72813;SDS011;60945;48.516;-2.768;2022-10-31T08:14:23;8.52;;;3.85;;
72813;SDS011;60945;48.516;-2.768;2022-10-31T08:16:49;8.32;;;4.15;;
72813;SDS011;60945;48.516;-2.768;2022-10-31T08:19:18;9.52;;;4.20;;
72813;SDS011;60945;48.516;-2.768;2022-10-31T08:21:44;7.70;;;4.43;;
72813;SDS011;60945;48.516;-2.768;2022-10-31T08:24:12;6.00;;;2.90;;
72813;SDS011;60945;48.516;-2.768;2022-10-31T08:26:38;7.45;;;3.53;;
72813;SDS011;60945;48.516;-2.768;2022-10-31T08:29:06;5.30;;;2.88;;
72813;SDS011;60945;48.516;-2.768;2022-10-31T08:31:31;5.97;;;2.83;;
72813;SDS011;60945;48.516;-2.768;2022-10-31T08:33:57;5.13;;;2.20;;
72813;SDS011;60945;48.516;-2.768;2022-10-31T08:36:23;5.50;;;1.95;;
72813;SDS011;60945;48.516;-2.768;2022-10-31T08:38:48;4.15;;;1.75;;
72813;SDS011;60945;48.516;-2.768;2022-10-31T08:41:14;4.28;;;1.85;;
72813;SDS011;60945;48.516;-2.768;2022-10-31T08:43:40;3.75;;;1.58;;
72813;SDS011;60945;48.516;-2.768;2022-10-31T08:46:05;5.25;;;1.98;;
72813;SDS011;60945;48.516;-2.768;2022-10-31T08:48:31;4.18;;;1.63;;
72813;SDS011;60945;48.516;-2.768;2022-10-31T08:50:57;4.05;;;1.80;;
72813;SDS011;60945;48.516;-2.768;2022-10-31T08:53:24;2.10;;;1.20;;
72813;SDS011;60945;48.516;-2.768;2022-10-31T08:55:51;4.38;;;1.50;;
72813;SDS011;60945;48.516;-2.768;2022-10-31T08:58:19;6.00;;;1.40;;
72813;SDS011;60945;48.516;-2.768;2022-10-31T09:00:46;3.42;;;1.30;;
72813;SDS011;60945;48.516;-2.768;2022-10-31T09:03:23;3.47;;;1.10;;
72813;SDS011;60945;48.516;-2.768;2022-10-31T09:05:50;3.22;;;1.02;;
72813;SDS011;60945;48.516;-2.768;2022-10-31T09:08:19;4.38;;;1.15;;
72813;SDS011;60945;48.516;-2.768;2022-10-31T09:10:45;3.15;;;1.52;;
72813;SDS011;60945;48.516;-2.768;2022-10-31T09:13:18;3.53;;;1.20;;
72813;SDS011;60945;48.516;-2.768;2022-10-31T09:15:45;3.97;;;1.42;;
72813;SDS011;60945;48.516;-2.768;2022-10-31T09:18:12;2.53;;;1.10;;
72813;SDS011;60945;48.516;-2.768;2022-10-31T09:20:40;3.58;;;1.27;;
72813;SDS011;60945;48.516;-2.768;2022-10-31T09:23:11;4.10;;;1.40;;
72813;SDS011;60945;48.516;-2.768;2022-10-31T09:25:38;3.22;;;1.40;;
72813;SDS011;60945;48.516;-2.768;2022-10-31T09:28:05;2.88;;;1.27;;
72813;SDS011;60945;48.516;-2.768;2022-10-31T09:30:34;3.80;;;1.70;;
72813;SDS011;60945;48.516;-2.768;2022-10-31T09:33:01;3.30;;;1.30;;
72813;SDS011;60945;48.516;-2.768;2022-10-31T09:35:28;3.60;;;1.58;;
72813;SDS011;60945;48.516;-2.768;2022-10-31T09:38:04;3.90;;;1.80;;
72813;SDS011;60945;48.516;-2.768;2022-10-31T09:40:38;3.40;;;1.90;;
72813;SDS011;60945;48.516;-2.768;2022-10-31T09:48:52;4.78;;;2.03;;
72813;SDS011;60945;48.516;-2.768;2022-10-31T09:51:25;4.35;;;1.95;;
72813;SDS011;60945;48.516;-2.768;2022-10-31T09:56:37;4.40;;;2.17;;
72813;SDS011;60945;48.516;-2.768;2022-10-31T09:59:04;4.18;;;2.03;;
72813;SDS011;60945;48.516;-2.768;2022-10-31T10:06:52;3.25;;;1.98;;
72813;SDS011;60945;48.516;-2.768;2022-10-31T10:09:20;6.35;;;2.63;;
72813;SDS011;60945;48.516;-2.768;2022-10-31T10:20:21;5.00;;;3.00;;
72813;SDS011;60945;48.516;-2.768;2022-10-31T10:23:29;4.05;;;2.58;;
72813;SDS011;60945;48.516;-2.768;2022-10-31T10:26:27;5.07;;;2.55;;
72813;SDS011;60945;48.516;-2.768;2022-10-31T10:29:27;6.85;;;2.75;;
72813;SDS011;60945;48.516;-2.768;2022-10-31T10:32:01;4.90;;;2.78;;
72813;SDS011;60945;48.516;-2.768;2022-10-31T10:37:03;6.10;;;3.40;;
72813;SDS011;60945;48.516;-2.768;2022-10-31T10:39:50;5.82;;;2.72;;
72813;SDS011;60945;48.516;-2.768;2022-10-31T10:42:20;6.32;;;3.20;;
72813;SDS011;60945;48.516;-2.768;2022-10-31T10:45:16;4.55;;;3.17;;
72813;SDS011;60945;48.516;-2.768;2022-10-31T10:48:05;6.80;;;3.00;;
72813;SDS011;60945;48.516;-2.768;2022-10-31T10:50:38;5.70;;;3.50;;
72813;SDS011;60945;48.516;-2.768;2022-10-31T10:53:28;5.97;;;3.50;;
72813;SDS011;60945;48.516;-2.768;2022-10-31T10:59:13;6.35;;;3.50;;
72813;SDS011;60945;48.516;-2.768;2022-10-31T11:01:43;7.80;;;4.00;;
72813;SDS011;60945;48.516;-2.768;2022-10-31T11:04:24;5.65;;;3.25;;
72813;SDS011;60945;48.516;-2.768;2022-10-31T11:06:58;7.95;;;3.85;;
72813;SDS011;60945;48.516;-2.768;2022-10-31T11:09:29;6.68;;;4.20;;
72813;SDS011;60945;48.516;-2.768;2022-10-31T11:11:55;6.45;;;3.97;;
72813;SDS011;60945;48.516;-2.768;2022-10-31T11:14:21;6.40;;;4.00;;
72813;SDS011;60945;48.516;-2.768;2022-10-31T11:16:54;6.22;;;4.20;;
72813;SDS011;60945;48.516;-2.768;2022-10-31T11:19:40;8.60;;;4.50;;
72813;SDS011;60945;48.516;-2.768;2022-10-31T11:22:07;8.15;;;4.88;;
72813;SDS011;60945;48.516;-2.768;2022-10-31T11:24:40;8.25;;;4.68;;
72813;SDS011;60945;48.516;-2.768;2022-10-31T11:29:45;6.68;;;5.07;;
72813;SDS011;60945;48.516;-2.768;2022-10-31T11:32:16;8.20;;;5.05;;
72813;SDS011;60945;48.516;-2.768;2022-10-31T11:34:48;8.00;;;5.28;;
72813;SDS011;60945;48.516;-2.768;2022-10-31T11:39:55;9.38;;;5.40;;
72813;SDS011;60945;48.516;-2.768;2022-10-31T11:42:24;8.65;;;6.13;;
72813;SDS011;60945;48.516;-2.768;2022-10-31T11:44:52;7.60;;;5.63;;
72813;SDS011;60945;48.516;-2.768;2022-10-31T11:47:29;9.82;;;6.10;;
72813;SDS011;60945;48.516;-2.768;2022-10-31T11:49:57;10.80;;;6.40;;
72813;SDS011;60945;48.516;-2.768;2022-10-31T11:52:34;10.55;;;6.15;;
72813;SDS011;60945;48.516;-2.768;2022-10-31T11:58:04;8.60;;;6.53;;
72813;SDS011;60945;48.516;-2.768;2022-10-31T12:00:48;11.10;;;5.47;;
72813;SDS011;60945;48.516;-2.768;2022-10-31T12:08:46;9.00;;;5.65;;
72813;SDS011;60945;48.516;-2.768;2022-10-31T12:19:25;9.98;;;5.97;;
72813;SDS011;60945;48.516;-2.768;2022-10-31T12:25:26;9.52;;;5.95;;
72813;SDS011;60945;48.516;-2.768;2022-10-31T12:31:32;9.10;;;5.93;;
72813;SDS011;60945;48.516;-2.768;2022-10-31T12:53:09;9.50;;;5.32;;
72813;SDS011;60945;48.516;-2.768;2022-10-31T13:01:06;7.85;;;5.18;;
72813;SDS011;60945;48.516;-2.768;2022-10-31T13:03:42;9.27;;;5.47;;
72813;SDS011;60945;48.516;-2.768;2022-10-31T13:06:19;7.57;;;5.32;;
72813;SDS011;60945;48.516;-2.768;2022-10-31T13:08:57;10.05;;;5.95;;
72813;SDS011;60945;48.516;-2.768;2022-10-31T13:11:32;8.10;;;5.13;;
72813;SDS011;60945;48.516;-2.768;2022-10-31T13:14:07;8.23;;;5.55;;
72813;SDS011;60945;48.516;-2.768;2022-10-31T13:16:48;8.82;;;5.40;;
72813;SDS011;60945;48.516;-2.768;2022-10-31T13:24:27;9.45;;;5.65;;
72813;SDS011;60945;48.516;-2.768;2022-10-31T13:27:20;7.97;;;5.25;;
72813;SDS011;60945;48.516;-2.768;2022-10-31T13:32:43;9.57;;;6.72;;
72813;SDS011;60945;48.516;-2.768;2022-10-31T13:38:10;10.20;;;6.35;;
72813;SDS011;60945;48.516;-2.768;2022-10-31T13:46:42;11.95;;;6.93;;
72813;SDS011;60945;48.516;-2.768;2022-10-31T13:52:04;9.05;;;6.88;;
72813;SDS011;60945;48.516;-2.768;2022-10-31T13:57:12;10.73;;;7.45;;
72813;SDS011;60945;48.516;-2.768;2022-10-31T13:59:45;10.57;;;6.55;;
72813;SDS011;60945;48.516;-2.768;2022-10-31T14:02:15;12.65;;;7.20;;
72813;SDS011;60945;48.516;-2.768;2022-10-31T14:04:50;9.90;;;7.72;;
72813;SDS011;60945;48.516;-2.768;2022-10-31T14:07:19;10.88;;;7.50;;
72813;SDS011;60945;48.516;-2.768;2022-10-31T14:18:05;13.45;;;7.30;;
72813;SDS011;60945;48.516;-2.768;2022-10-31T14:20:39;11.88;;;7.57;;
72813;SDS011;60945;48.516;-2.768;2022-10-31T14:26:30;14.23;;;9.15;;
72813;SDS011;60945;48.516;-2.768;2022-10-31T14:28:55;12.77;;;7.82;;
72813;SDS011;60945;48.516;-2.768;2022-10-31T14:31:32;11.65;;;7.53;;
72813;SDS011;60945;48.516;-2.768;2022-10-31T14:34:21;11.25;;;7.32;;
72813;SDS011;60945;48.516;-2.768;2022-10-31T14:52:07;11.52;;;6.75;;
72813;SDS011;60945;48.516;-2.768;2022-10-31T14:54:40;10.77;;;6.80;;
72813;SDS011;60945;48.516;-2.768;2022-10-31T15:00:15;9.25;;;5.97;;
72813;SDS011;60945;48.516;-2.768;2022-10-31T15:03:04;10.23;;;6.27;;
72813;SDS011;60945;48.516;-2.768;2022-10-31T15:05:41;10.35;;;6.78;;
72813;SDS011;60945;48.516;-2.768;2022-10-31T15:08:13;8.32;;;5.75;;
72813;SDS011;60945;48.516;-2.768;2022-10-31T15:10:52;10.75;;;6.28;;
72813;SDS011;60945;48.516;-2.768;2022-10-31T15:13:19;8.57;;;5.00;;
72813;SDS011;60945;48.516;-2.768;2022-10-31T15:15:47;8.45;;;6.05;;
72813;SDS011;60945;48.516;-2.768;2022-10-31T15:18:20;8.13;;;5.32;;
72813;SDS011;60945;48.516;-2.768;2022-10-31T15:20:51;8.20;;;5.78;;
72813;SDS011;60945;48.516;-2.768;2022-10-31T15:23:22;8.68;;;5.53;;
72813;SDS011;60945;48.516;-2.768;2022-10-31T15:25:49;8.65;;;5.30;;
72813;SDS011;60945;48.516;-2.768;2022-10-31T15:28:20;7.75;;;4.53;;
72813;SDS011;60945;48.516;-2.768;2022-10-31T15:30:58;9.38;;;5.20;;
72813;SDS011;60945;48.516;-2.768;2022-10-31T15:33:26;10.13;;;5.18;;
72813;SDS011;60945;48.516;-2.768;2022-10-31T15:36:00;9.23;;;5.30;;
72813;SDS011;60945;48.516;-2.768;2022-10-31T15:38:27;10.43;;;6.00;;
72813;SDS011;60945;48.516;-2.768;2022-10-31T15:40:57;11.30;;;5.93;;
72813;SDS011;60945;48.516;-2.768;2022-10-31T15:43:27;12.38;;;6.47;;
72813;SDS011;60945;48.516;-2.768;2022-10-31T15:46:01;10.35;;;5.35;;
72813;SDS011;60945;48.516;-2.768;2022-10-31T15:48:27;10.57;;;6.28;;
72813;SDS011;60945;48.516;-2.768;2022-10-31T15:50:56;9.63;;;5.45;;
72813;SDS011;60945;48.516;-2.768;2022-10-31T15:53:27;9.23;;;5.30;;
72813;SDS011;60945;48.516;-2.768;2022-10-31T15:56:02;11.65;;;5.40;;
72813;SDS011;60945;48.516;-2.768;2022-10-31T15:58:31;10.10;;;5.35;;
72813;SDS011;60945;48.516;-2.768;2022-10-31T16:01:00;10.32;;;5.22;;
72813;SDS011;60945;48.516;-2.768;2022-10-31T16:03:31;8.20;;;4.95;;
72813;SDS011;60945;48.516;-2.768;2022-10-31T16:05:58;11.18;;;5.57;;
72813;SDS011;60945;48.516;-2.768;2022-10-31T16:13:28;8.80;;;5.50;;
72813;SDS011;60945;48.516;-2.768;2022-10-31T16:15:57;13.75;;;5.78;;
72813;SDS011;60945;48.516;-2.768;2022-10-31T16:18:25;13.00;;;6.00;;
72813;SDS011;60945;48.516;-2.768;2022-10-31T16:20:53;12.45;;;5.88;;
72813;SDS011;60945;48.516;-2.768;2022-10-31T16:23:22;11.73;;;5.57;;
72813;SDS011;60945;48.516;-2.768;2022-10-31T16:25:49;9.07;;;4.57;;
72813;SDS011;60945;48.516;-2.768;2022-10-31T16:28:20;9.07;;;4.85;;
72813;SDS011;60945;48.516;-2.768;2022-10-31T16:30:49;10.35;;;4.78;;
72813;SDS011;60945;48.516;-2.768;2022-10-31T16:33:31;10.27;;;4.50;;
72813;SDS011;60945;48.516;-2.768;2022-10-31T16:38:53;8.98;;;4.10;;
72813;SDS011;60945;48.516;-2.768;2022-10-31T16:41:19;8.15;;;4.82;;
72813;SDS011;60945;48.516;-2.768;2022-10-31T16:43:45;7.80;;;4.35;;
72813;SDS011;60945;48.516;-2.768;2022-10-31T16:46:15;11.52;;;4.07;;
72813;SDS011;60945;48.516;-2.768;2022-10-31T16:48:52;7.53;;;3.50;;
72813;SDS011;60945;48.516;-2.768;2022-10-31T16:51:18;7.90;;;3.15;;
72813;SDS011;60945;48.516;-2.768;2022-10-31T16:53:44;6.00;;;3.28;;
72813;SDS011;60945;48.516;-2.768;2022-10-31T16:56:17;7.10;;;2.70;;
72813;SDS011;60945;48.516;-2.768;2022-10-31T16:58:47;4.95;;;2.28;;
72813;SDS011;60945;48.516;-2.768;2022-10-31T17:01:13;4.28;;;1.90;;
72813;SDS011;60945;48.516;-2.768;2022-10-31T17:03:38;4.70;;;2.20;;
72813;SDS011;60945;48.516;-2.768;2022-10-31T17:06:04;3.55;;;1.90;;
72813;SDS011;60945;48.516;-2.768;2022-10-31T17:08:30;6.60;;;2.20;;
72813;SDS011;60945;48.516;-2.768;2022-10-31T17:10:57;3.70;;;1.85;;
72813;SDS011;60945;48.516;-2.768;2022-10-31T17:13:27;5.68;;;2.25;;
72813;SDS011;60945;48.516;-2.768;2022-10-31T17:15:55;3.65;;;2.13;;
72813;SDS011;60945;48.516;-2.768;2022-10-31T17:18:24;5.40;;;2.35;;
72813;SDS011;60945;48.516;-2.768;2022-10-31T17:20:50;3.33;;;2.20;;
72813;SDS011;60945;48.516;-2.768;2022-10-31T17:23:21;4.35;;;2.05;;
72813;SDS011;60945;48.516;-2.768;2022-10-31T17:25:46;4.20;;;1.80;;
72813;SDS011;60945;48.516;-2.768;2022-10-31T17:28:12;4.32;;;1.98;;
72813;SDS011;60945;48.516;-2.768;2022-10-31T17:30:42;3.40;;;1.45;;
72813;SDS011;60945;48.516;-2.768;2022-10-31T17:33:11;4.00;;;1.30;;
72813;SDS011;60945;48.516;-2.768;2022-10-31T17:35:38;5.00;;;1.30;;
72813;SDS011;60945;48.516;-2.768;2022-10-31T17:38:04;4.30;;;1.33;;